createdAt,value
2019-05-26T00:04:35.801Z,4.10
2019-05-26T00:10:40.354Z,4.43
2019-05-26T00:16:44.912Z,4.93
2019-05-26T00:22:49.497Z,5.30
2019-05-26T00:29:07.642Z,5.93
2019-05-26T00:35:12.275Z,6.63
2019-05-26T00:41:16.835Z,6.40
2019-05-26T00:47:21.478Z,5.30
2019-05-26T00:53:26.743Z,6.73
2019-05-26T00:59:31.365Z,5.97
2019-05-26T01:05:35.908Z,6.03
2019-05-26T01:11:40.466Z,5.57
2019-05-26T01:17:45.067Z,5.20
2019-05-26T01:23:49.690Z,5.80
2019-05-26T01:29:54.236Z,5.70
2019-05-26T01:35:59.141Z,5.60
2019-05-26T01:42:03.706Z,6.20
2019-05-26T01:48:09.070Z,5.47
2019-05-26T01:54:13.627Z,5.60
2019-05-26T02:00:18.884Z,6.70
2019-05-26T02:06:23.578Z,7.10
2019-05-26T02:12:28.133Z,6.13
2019-05-26T02:18:32.721Z,5.37
2019-05-26T02:24:37.313Z,4.90
2019-05-26T02:30:41.874Z,4.63
2019-05-26T02:36:46.523Z,4.80
2019-05-26T02:42:51.046Z,4.20
2019-05-26T02:48:55.602Z,3.87
2019-05-26T02:55:00.172Z,4.87
2019-05-26T03:01:04.798Z,5.00
2019-05-26T03:07:09.988Z,4.30
2019-05-26T03:13:17.150Z,4.67
2019-05-26T03:19:23.283Z,5.73
2019-05-26T03:25:29.382Z,4.57
2019-05-26T03:31:33.984Z,5.30
2019-05-26T03:37:38.745Z,4.43
2019-05-26T03:43:43.354Z,3.80
2019-05-26T03:49:48.036Z,4.53
2019-05-26T03:55:52.611Z,4.60
2019-05-26T04:01:57.896Z,6.67
2019-05-26T04:08:05.109Z,7.53
2019-05-26T04:14:08.974Z,6.63
2019-05-26T04:20:13.765Z,5.80
2019-05-26T04:26:18.318Z,6.40
2019-05-26T04:32:22.943Z,5.70
2019-05-26T04:38:27.497Z,4.93
2019-05-26T04:44:32.065Z,4.67
2019-05-26T04:50:36.630Z,5.37
2019-05-26T04:56:41.339Z,4.43
2019-05-26T05:02:45.895Z,4.73
2019-05-26T05:08:50.535Z,4.43
2019-05-26T05:14:55.286Z,4.93
2019-05-26T05:20:59.827Z,4.67
2019-05-26T05:27:04.461Z,4.50
2019-05-26T05:33:09.097Z,4.43
2019-05-26T05:39:13.653Z,4.57
2019-05-26T05:45:19.477Z,5.20
2019-05-26T05:51:24.047Z,4.13
2019-05-26T05:57:28.611Z,4.80
2019-05-26T06:03:33.162Z,4.47
2019-05-26T06:09:37.750Z,4.70
2019-05-26T06:15:42.320Z,3.83
2019-05-26T06:21:46.894Z,4.47
2019-05-26T06:27:51.720Z,5.10
2019-05-26T06:33:56.330Z,6.43
2019-05-26T06:40:01.124Z,4.63
2019-05-26T06:46:06.323Z,5.90
2019-05-26T06:52:11.008Z,4.77
2019-05-26T06:58:15.572Z,5.37
2019-05-26T07:04:20.301Z,5.23
2019-05-26T07:10:24.859Z,4.63
2019-05-26T07:16:37.952Z,5.70
2019-05-26T07:22:36.958Z,6.00
2019-05-26T07:28:41.541Z,5.53
2019-05-26T07:34:46.164Z,6.03
2019-05-26T07:40:50.812Z,6.77
2019-05-26T07:46:55.394Z,6.50
2019-05-26T07:52:59.957Z,6.33
2019-05-26T07:59:04.757Z,6.03
2019-05-26T08:05:09.832Z,8.70
2019-05-26T08:11:14.479Z,7.70
2019-05-26T08:17:19.041Z,9.20
2019-05-26T08:23:23.735Z,9.40
2019-05-26T08:29:28.442Z,9.00
2019-05-26T08:35:34.421Z,9.80
2019-05-26T08:41:39.203Z,9.20
2019-05-26T08:47:44.041Z,9.73
2019-05-26T08:53:48.633Z,8.80
2019-05-26T08:59:53.197Z,7.20
2019-05-26T09:05:57.757Z,8.57
2019-05-26T09:12:02.354Z,9.43
2019-05-26T09:18:06.995Z,7.67
2019-05-26T09:24:11.676Z,8.00
2019-05-26T09:30:17.888Z,6.93
2019-05-26T09:36:22.452Z,5.50
2019-05-26T09:42:27.187Z,8.10
2019-05-26T09:48:31.746Z,5.80
2019-05-26T09:54:36.395Z,5.47
2019-05-26T10:00:41.038Z,4.70
2019-05-26T10:06:45.627Z,5.30
2019-05-26T10:12:50.232Z,4.50
2019-05-26T10:18:54.811Z,4.97
2019-05-26T10:24:59.374Z,4.30
2019-05-26T10:31:04.090Z,3.77
2019-05-26T10:37:08.747Z,3.70
2019-05-26T10:43:13.309Z,2.67
2019-05-26T10:49:18.156Z,2.97
2019-05-26T10:55:22.791Z,3.23
2019-05-26T11:01:27.374Z,2.47
2019-05-26T11:07:32.020Z,2.90
2019-05-26T11:13:36.584Z,2.10
2019-05-26T11:19:41.148Z,2.17
2019-05-26T11:25:45.722Z,2.90
2019-05-26T11:31:50.352Z,1.87
2019-05-26T11:37:55.695Z,1.93
2019-05-26T11:44:00.261Z,2.00
2019-05-26T11:50:07.411Z,1.80
2019-05-26T11:56:12.034Z,2.07
2019-05-26T12:02:16.613Z,2.33
2019-05-26T12:08:21.190Z,2.23
2019-05-26T12:14:34.930Z,2.03
2019-05-26T12:20:32.142Z,2.20
2019-05-26T12:26:36.705Z,2.47
2019-05-26T12:32:41.354Z,2.40
2019-05-26T12:38:51.787Z,2.50
2019-05-26T12:44:56.355Z,2.20
2019-05-26T12:51:00.941Z,2.37
2019-05-26T12:57:05.650Z,2.40
2019-05-26T13:03:10.285Z,2.83
2019-05-26T13:09:15.367Z,3.30
2019-05-26T13:15:21.038Z,3.53
2019-05-26T13:21:25.617Z,3.20
2019-05-26T13:27:30.179Z,2.97
2019-05-26T13:33:34.749Z,4.00
2019-05-26T13:39:39.315Z,3.13
2019-05-26T13:45:43.888Z,2.97
2019-05-26T13:51:50.507Z,3.50
2019-05-26T13:57:54.886Z,3.33
2019-05-26T14:03:59.462Z,3.33
2019-05-26T14:10:05.542Z,3.70
2019-05-26T14:16:10.186Z,3.33
2019-05-26T14:22:14.743Z,3.47
2019-05-26T14:28:19.310Z,3.23
2019-05-26T14:34:23.882Z,3.20
2019-05-26T14:40:29.149Z,3.17
2019-05-26T14:46:33.694Z,2.70
2019-05-26T14:52:38.475Z,3.03
2019-05-26T14:58:43.044Z,2.10
2019-05-26T15:04:47.613Z,2.00
2019-05-26T15:10:52.251Z,2.43
2019-05-26T15:16:56.815Z,2.40
2019-05-26T15:23:01.396Z,2.10
2019-05-26T15:29:06.106Z,2.43
2019-05-26T15:35:11.180Z,2.40
2019-05-26T15:41:15.733Z,2.00
2019-05-26T15:47:20.296Z,1.97
2019-05-26T15:53:24.852Z,1.73
2019-05-26T15:59:29.488Z,4.40
2019-05-26T16:05:34.139Z,2.20
2019-05-26T16:11:38.703Z,2.53
2019-05-26T16:17:43.271Z,2.53
2019-05-26T16:23:47.838Z,2.10
2019-05-26T16:29:52.403Z,2.07
2019-05-26T16:35:56.973Z,2.00
2019-05-26T16:42:01.530Z,2.23
2019-05-26T16:48:06.237Z,1.90
2019-05-26T16:54:10.794Z,1.90
2019-05-26T17:00:15.719Z,2.43
2019-05-26T17:06:20.281Z,2.33
2019-05-26T17:12:24.867Z,2.20
2019-05-26T17:18:29.438Z,2.17
2019-05-26T17:24:34.002Z,2.17
2019-05-26T17:30:38.689Z,2.40
2019-05-26T17:36:43.248Z,2.10
2019-05-26T17:42:47.807Z,2.63
2019-05-26T17:48:52.377Z,2.33
2019-05-26T17:54:56.951Z,2.00
2019-05-26T18:01:01.579Z,2.17
2019-05-26T18:07:06.485Z,2.03
2019-05-26T18:13:11.048Z,2.30
2019-05-26T18:19:15.683Z,2.10
2019-05-26T18:25:20.431Z,2.30
2019-05-26T18:31:28.719Z,2.27
2019-05-26T18:37:31.559Z,2.30
2019-05-26T18:43:36.121Z,2.07
2019-05-26T18:49:40.766Z,2.20
2019-05-26T18:55:45.315Z,1.90
2019-05-26T19:01:49.891Z,2.27
2019-05-26T19:07:54.733Z,2.10
2019-05-26T19:13:59.354Z,2.27
2019-05-26T19:20:16.038Z,2.30
2019-05-26T19:26:14.107Z,2.50
2019-05-26T19:32:18.740Z,2.20
2019-05-26T19:38:23.310Z,2.53
2019-05-26T19:44:27.889Z,2.00
2019-05-26T19:50:32.579Z,2.10
2019-05-26T19:56:37.150Z,2.03
2019-05-26T20:02:41.781Z,1.83
2019-05-26T20:08:46.354Z,2.10
2019-05-26T20:14:50.915Z,2.43
2019-05-26T20:20:55.463Z,2.20
2019-05-26T20:27:00.046Z,2.10
2019-05-26T20:33:04.699Z,2.30
2019-05-26T20:39:10.424Z,2.17
2019-05-26T20:45:15.640Z,2.20
2019-05-26T20:51:20.344Z,2.03
2019-05-26T20:57:24.987Z,2.40
2019-05-26T21:03:29.614Z,2.40
2019-05-26T21:09:34.177Z,2.17
2019-05-26T21:15:38.787Z,2.57
2019-05-26T21:21:43.373Z,2.37
2019-05-26T21:27:47.958Z,2.30
2019-05-26T21:33:52.543Z,2.40
2019-05-26T21:39:57.147Z,2.40
2019-05-26T21:46:01.721Z,2.43
2019-05-26T21:52:06.698Z,2.20
2019-05-26T21:58:11.268Z,2.03
2019-05-26T22:04:15.824Z,2.17
2019-05-26T22:10:20.536Z,2.10
2019-05-26T22:16:25.180Z,2.10
2019-05-26T22:22:29.805Z,2.10
2019-05-26T22:28:34.437Z,2.30
2019-05-26T22:34:39.048Z,2.33
2019-05-26T22:40:43.613Z,2.43
2019-05-26T22:46:48.183Z,2.57
2019-05-26T22:52:52.740Z,2.53
2019-05-26T22:58:57.331Z,2.23
2019-05-26T23:05:01.898Z,2.50
2019-05-26T23:11:06.537Z,2.50
2019-05-26T23:17:11.113Z,2.20
2019-05-26T23:23:15.772Z,2.80
2019-05-26T23:29:20.325Z,2.33
2019-05-26T23:35:24.886Z,2.73
2019-05-26T23:41:29.463Z,1.93
2019-05-26T23:47:34.032Z,2.53
2019-05-26T23:53:38.594Z,2.50
2019-05-26T23:59:43.154Z,2.60
